AFR76LX LFPG-LIRQ
Flight info
| Callsign | AFR76LX |
|---|---|
| Flight time | N/A |
| Altitude | 35000 |
| Route | LANVI DCT DEVDI DCT ODINA DCT SRN DCT ROBAS DCT OSBUL/N0350F190 L153 BEROK Y138 GAPMI |
| Aircraft | A319/M-SBDE2E3GIRWXY/LB1 |
Departure
| Time | 2026-05-06 12:49 |
|---|---|
| Airport | Charles de Gaulle International Airport (LFPG) |
Arrival
| Time | N/A |
|---|---|
| Airport | Florence Airport, Peretola (LIRQ) |
| Time | Latitude | Longitude | Altitude | Speed | Heading |
|---|---|---|---|---|---|
| 2026-05-06 12:34 | 49.00692 | 2.56108 | 361 ft | 0 kts | 356° |
| 2026-05-06 12:40 | 49.00676 | 2.56110 | 363 ft | 4 kts | 352° |
| 2026-05-06 12:40 | 49.00650 | 2.56119 | 360 ft | 4 kts | 332° |
| 2026-05-06 12:40 | 49.00633 | 2.56142 | 364 ft | 4 kts | 278° |
| 2026-05-06 12:41 | 49.00632 | 2.56153 | 364 ft | 0 kts | 263° |
| 2026-05-06 12:41 | 49.00631 | 2.56150 | 364 ft | 1 kts | 260° |
| 2026-05-06 12:42 | 49.00624 | 2.56157 | 364 ft | 1 kts | 133° |
| 2026-05-06 12:42 | 49.00618 | 2.56215 | 356 ft | 10 kts | 94° |
| 2026-05-06 12:42 | 49.00621 | 2.56359 | 354 ft | 16 kts | 85° |
| 2026-05-06 12:42 | 49.00630 | 2.56531 | 354 ft | 16 kts | 85° |
| 2026-05-06 12:43 | 49.00639 | 2.56704 | 354 ft | 16 kts | 85° |
| 2026-05-06 12:43 | 49.00650 | 2.56876 | 354 ft | 16 kts | 84° |
| 2026-05-06 12:43 | 49.00663 | 2.57056 | 354 ft | 18 kts | 79° |
| 2026-05-06 12:43 | 49.00721 | 2.57216 | 354 ft | 18 kts | 21° |
| 2026-05-06 12:44 | 49.00839 | 2.57232 | 354 ft | 17 kts | 38° |
| 2026-05-06 12:44 | 49.00869 | 2.57409 | 357 ft | 19 kts | 84° |
| 2026-05-06 12:44 | 49.00881 | 2.57624 | 362 ft | 22 kts | 85° |
| 2026-05-06 12:44 | 49.00896 | 2.57872 | 356 ft | 24 kts | 84° |
| 2026-05-06 12:45 | 49.00908 | 2.58126 | 354 ft | 24 kts | 85° |
| 2026-05-06 12:45 | 49.00921 | 2.58378 | 354 ft | 24 kts | 84° |
| 2026-05-06 12:45 | 49.00947 | 2.58877 | 354 ft | 24 kts | 83° |
| 2026-05-06 12:46 | 49.00984 | 2.59117 | 359 ft | 23 kts | 82° |
| 2026-05-06 12:46 | 49.00997 | 2.59361 | 361 ft | 23 kts | 85° |
| 2026-05-06 12:46 | 49.00933 | 2.59534 | 354 ft | 22 kts | 173° |
| 2026-05-06 12:46 | 49.00785 | 2.59552 | 354 ft | 21 kts | 175° |
| 2026-05-06 12:47 | 49.00639 | 2.59570 | 361 ft | 21 kts | 175° |
| 2026-05-06 12:47 | 49.00495 | 2.59588 | 356 ft | 21 kts | 176° |
| 2026-05-06 12:47 | 49.00354 | 2.59605 | 354 ft | 20 kts | 175° |
| 2026-05-06 12:47 | 49.00215 | 2.59623 | 354 ft | 20 kts | 175° |
| 2026-05-06 12:48 | 49.00078 | 2.59640 | 354 ft | 20 kts | 175° |
| 2026-05-06 12:48 | 48.99942 | 2.59658 | 354 ft | 19 kts | 175° |
| 2026-05-06 12:48 | 48.99820 | 2.59653 | 357 ft | 16 kts | 220° |
| 2026-05-06 12:48 | 48.99797 | 2.59472 | 353 ft | 25 kts | 266° |
| 2026-05-06 12:49 | 48.99763 | 2.58804 | 352 ft | 97 kts | 265° |
| 2026-05-06 12:49 | 48.99690 | 2.57473 | 351 ft | 153 kts | 265° |
| 2026-05-06 12:49 | 48.99572 | 2.55748 | 755 ft | 163 kts | 263° |
| 2026-05-06 12:49 | 48.99392 | 2.54043 | 1381 ft | 166 kts | 263° |
| 2026-05-06 12:50 | 48.99250 | 2.52283 | 1992 ft | 167 kts | 269° |
| 2026-05-06 12:50 | 48.99178 | 2.50524 | 2606 ft | 167 kts | 271° |
| 2026-05-06 12:50 | 48.99113 | 2.48761 | 3192 ft | 167 kts | 271° |
| 2026-05-06 12:50 | 48.99045 | 2.46976 | 3677 ft | 176 kts | 271° |
| 2026-05-06 12:51 | 48.98967 | 2.44998 | 4019 ft | 199 kts | 271° |
| 2026-05-06 12:51 | 48.98869 | 2.42764 | 4327 ft | 224 kts | 270° |
| 2026-05-06 12:51 | 48.98749 | 2.40272 | 4719 ft | 248 kts | 269° |
| 2026-05-06 12:51 | 48.98610 | 2.37546 | 5280 ft | 264 kts | 269° |
| 2026-05-06 12:52 | 48.98455 | 2.34721 | 6150 ft | 270 kts | 268° |
| 2026-05-06 12:52 | 48.98292 | 2.31853 | 7065 ft | 274 kts | 268° |
| 2026-05-06 12:52 | 48.98125 | 2.28959 | 7940 ft | 276 kts | 267° |
| 2026-05-06 12:52 | 48.97886 | 2.26045 | 8871 ft | 279 kts | 257° |
| 2026-05-06 12:53 | 48.97051 | 2.23374 | 9830 ft | 284 kts | 234° |
| 2026-05-06 12:53 | 48.95576 | 2.21363 | 10634 ft | 291 kts | 212° |
| 2026-05-06 12:53 | 48.93622 | 2.20330 | 10916 ft | 317 kts | 186° |
| 2026-05-06 12:53 | 48.91383 | 2.20758 | 11323 ft | 335 kts | 163° |
| 2026-05-06 12:54 | 48.89158 | 2.21911 | 11980 ft | 341 kts | 163° |
| 2026-05-06 12:54 | 48.86897 | 2.23074 | 12683 ft | 345 kts | 163° |
| 2026-05-06 12:54 | 48.84647 | 2.24380 | 13419 ft | 349 kts | 154° |
| 2026-05-06 12:54 | 48.82655 | 2.26547 | 14066 ft | 356 kts | 135° |
| 2026-05-06 12:55 | 48.81174 | 2.29563 | 14697 ft | 360 kts | 118° |
| 2026-05-06 12:55 | 48.80363 | 2.33161 | 15383 ft | 363 kts | 99° |
| 2026-05-06 12:55 | 48.80289 | 2.36993 | 16091 ft | 367 kts | 84° |
| 2026-05-06 12:55 | 48.80551 | 2.40861 | 16787 ft | 370 kts | 84° |
| 2026-05-06 12:56 | 48.80818 | 2.44757 | 17529 ft | 373 kts | 84° |
| 2026-05-06 12:56 | 48.81084 | 2.48684 | 18239 ft | 376 kts | 84° |
| 2026-05-06 12:56 | 48.81347 | 2.52656 | 18861 ft | 380 kts | 85° |
| 2026-05-06 12:56 | 48.81608 | 2.56651 | 19468 ft | 382 kts | 85° |
| 2026-05-06 12:57 | 48.81872 | 2.60683 | 20026 ft | 385 kts | 85° |
| 2026-05-06 12:57 | 48.82140 | 2.64744 | 20549 ft | 389 kts | 85° |
| 2026-05-06 12:57 | 48.82410 | 2.68851 | 21054 ft | 393 kts | 85° |
| 2026-05-06 12:57 | 48.82681 | 2.73001 | 21568 ft | 397 kts | 85° |
| 2026-05-06 12:58 | 48.82952 | 2.77185 | 22125 ft | 400 kts | 85° |
| 2026-05-06 12:58 | 48.83222 | 2.81398 | 22654 ft | 403 kts | 86° |
| 2026-05-06 12:58 | 48.83491 | 2.85642 | 23201 ft | 405 kts | 86° |
| 2026-05-06 12:58 | 48.83756 | 2.89916 | 23689 ft | 408 kts | 86° |
| 2026-05-06 12:59 | 48.84023 | 2.94218 | 24146 ft | 411 kts | 86° |
| 2026-05-06 12:59 | 48.84291 | 2.98541 | 24595 ft | 412 kts | 86° |
| 2026-05-06 12:59 | 48.84729 | 3.02855 | 25023 ft | 416 kts | 77° |
| 2026-05-06 12:59 | 48.85479 | 3.07109 | 25446 ft | 418 kts | 76° |
| 2026-05-06 13:00 | 48.86240 | 3.11385 | 25819 ft | 421 kts | 76° |
| 2026-05-06 13:00 | 48.87000 | 3.15699 | 26199 ft | 424 kts | 76° |
| 2026-05-06 13:00 | 48.87760 | 3.20043 | 26615 ft | 426 kts | 76° |
| 2026-05-06 13:00 | 48.88521 | 3.24410 | 27018 ft | 429 kts | 76° |
| 2026-05-06 13:01 | 48.89285 | 3.28798 | 27448 ft | 430 kts | 76° |
| 2026-05-06 13:01 | 48.90050 | 3.33203 | 27857 ft | 433 kts | 76° |
| 2026-05-06 13:01 | 48.90819 | 3.37628 | 28292 ft | 434 kts | 76° |
| 2026-05-06 13:01 | 48.91589 | 3.42077 | 28690 ft | 436 kts | 77° |
| 2026-05-06 13:02 | 48.92359 | 3.46546 | 29081 ft | 438 kts | 76° |
| 2026-05-06 13:02 | 48.93121 | 3.51038 | 29467 ft | 439 kts | 79° |
| 2026-05-06 13:02 | 48.93566 | 3.55640 | 29815 ft | 440 kts | 88° |
| 2026-05-06 13:02 | 48.93538 | 3.60229 | 30154 ft | 441 kts | 96° |
| 2026-05-06 13:03 | 48.93280 | 3.64884 | 30435 ft | 443 kts | 96° |
| 2026-05-06 13:03 | 48.93026 | 3.69562 | 30715 ft | 445 kts | 96° |
| 2026-05-06 13:03 | 48.92778 | 3.74260 | 30997 ft | 447 kts | 96° |
| 2026-05-06 13:03 | 48.92531 | 3.78975 | 31274 ft | 449 kts | 96° |
| 2026-05-06 13:04 | 48.92281 | 3.83698 | 31671 ft | 447 kts | 96° |
| 2026-05-06 13:04 | 48.92025 | 3.88409 | 32059 ft | 447 kts | 96° |
| 2026-05-06 13:04 | 48.91766 | 3.93114 | 32437 ft | 446 kts | 96° |
| 2026-05-06 13:04 | 48.91505 | 3.97809 | 32822 ft | 446 kts | 96° |
| 2026-05-06 13:05 | 48.91245 | 4.02501 | 33197 ft | 445 kts | 96° |
| 2026-05-06 13:05 | 48.90982 | 4.07181 | 33576 ft | 445 kts | 96° |
| 2026-05-06 13:05 | 48.90715 | 4.11859 | 33939 ft | 444 kts | 96° |
| 2026-05-06 13:05 | 48.90446 | 4.16536 | 34232 ft | 444 kts | 97° |
| 2026-05-06 13:06 | 48.89921 | 4.21147 | 34489 ft | 443 kts | 106° |
| 2026-05-06 13:06 | 48.88930 | 4.25566 | 34719 ft | 442 kts | 115° |
| 2026-05-06 13:06 | 48.87533 | 4.29714 | 34858 ft | 441 kts | 121° |
| 2026-05-06 13:07 | 48.84585 | 4.37752 | 34889 ft | 433 kts | 121° |
| 2026-05-06 13:07 | 48.81673 | 4.45711 | 34889 ft | 430 kts | 121° |
| 2026-05-06 13:08 | 48.78760 | 4.53627 | 34888 ft | 430 kts | 121° |
| 2026-05-06 13:08 | 48.75840 | 4.61531 | 34886 ft | 430 kts | 121° |
| 2026-05-06 13:09 | 48.72917 | 4.69432 | 34883 ft | 429 kts | 121° |
| 2026-05-06 13:09 | 48.69998 | 4.77297 | 34880 ft | 428 kts | 121° |
| 2026-05-06 13:10 | 48.67071 | 4.85150 | 34877 ft | 428 kts | 122° |
| 2026-05-06 13:10 | 48.64142 | 4.92992 | 34879 ft | 428 kts | 122° |
| 2026-05-06 13:11 | 48.61229 | 5.00761 | 34885 ft | 428 kts | 122° |
| 2026-05-06 13:11 | 48.58291 | 5.08573 | 34885 ft | 428 kts | 122° |
| 2026-05-06 13:12 | 48.55353 | 5.16385 | 34876 ft | 428 kts | 122° |
| 2026-05-06 13:12 | 48.52408 | 5.24186 | 34856 ft | 427 kts | 122° |
| 2026-05-06 13:13 | 48.49463 | 5.31966 | 34844 ft | 427 kts | 122° |
| 2026-05-06 13:13 | 48.46507 | 5.39729 | 34844 ft | 427 kts | 122° |
| 2026-05-06 13:14 | 48.43548 | 5.47502 | 34848 ft | 428 kts | 122° |
| 2026-05-06 13:14 | 48.40582 | 5.55267 | 34845 ft | 428 kts | 122° |
| 2026-05-06 13:15 | 48.37603 | 5.63013 | 34832 ft | 428 kts | 122° |
| 2026-05-06 13:15 | 48.34615 | 5.70757 | 34835 ft | 428 kts | 123° |
| 2026-05-06 13:16 | 48.31627 | 5.78497 | 34833 ft | 428 kts | 122° |
| 2026-05-06 13:16 | 48.28847 | 5.86422 | 34831 ft | 430 kts | 118° |
| 2026-05-06 13:17 | 48.26356 | 5.94590 | 34831 ft | 430 kts | 117° |
| 2026-05-06 13:17 | 48.23867 | 6.02763 | 34818 ft | 431 kts | 118° |
| 2026-05-06 13:18 | 48.21310 | 6.10824 | 34820 ft | 431 kts | 118° |
| 2026-05-06 13:18 | 48.18675 | 6.18958 | 34823 ft | 431 kts | 119° |
| 2026-05-06 13:19 | 48.16075 | 6.26982 | 34828 ft | 431 kts | 118° |
| 2026-05-06 13:19 | 48.13468 | 6.35075 | 34834 ft | 432 kts | 118° |
| 2026-05-06 13:20 | 48.10861 | 6.43161 | 34828 ft | 432 kts | 119° |
| 2026-05-06 13:20 | 48.08234 | 6.51259 | 34839 ft | 433 kts | 120° |
| 2026-05-06 13:21 | 48.05599 | 6.59354 | 34843 ft | 433 kts | 120° |
| 2026-05-06 13:21 | 48.02964 | 6.67437 | 34850 ft | 433 kts | 120° |
| 2026-05-06 13:22 | 48.00313 | 6.75517 | 34847 ft | 433 kts | 120° |
| 2026-05-06 13:22 | 47.97658 | 6.83586 | 34831 ft | 433 kts | 121° |
| 2026-05-06 13:23 | 47.95449 | 6.90294 | 34836 ft | 433 kts | 121° |
| 2026-05-06 13:23 | 47.92784 | 6.98353 | 34833 ft | 433 kts | 121° |
| 2026-05-06 13:24 | 47.90110 | 7.06414 | 34838 ft | 434 kts | 121° |
| 2026-05-06 13:24 | 47.87430 | 7.14463 | 34838 ft | 434 kts | 121° |
| 2026-05-06 13:25 | 47.84747 | 7.22508 | 34817 ft | 433 kts | 122° |
| 2026-05-06 13:25 | 47.82056 | 7.30537 | 34826 ft | 434 kts | 122° |
| 2026-05-06 13:26 | 47.79359 | 7.38564 | 34836 ft | 434 kts | 122° |
| 2026-05-06 13:26 | 47.76653 | 7.46594 | 34845 ft | 434 kts | 122° |
| 2026-05-06 13:27 | 47.73211 | 7.53723 | 34877 ft | 419 kts | 142° |
| 2026-05-06 13:27 | 47.68515 | 7.58568 | 34863 ft | 406 kts | 160° |
| 2026-05-06 13:28 | 47.63421 | 7.62154 | 34889 ft | 405 kts | 160° |
| 2026-05-06 13:28 | 47.58334 | 7.65724 | 34898 ft | 404 kts | 160° |
| 2026-05-06 13:29 | 47.53295 | 7.69267 | 34886 ft | 403 kts | 160° |
| 2026-05-06 13:29 | 47.48229 | 7.72821 | 34886 ft | 403 kts | 160° |
| 2026-05-06 13:30 | 47.43158 | 7.76363 | 34879 ft | 403 kts | 160° |
| 2026-05-06 13:30 | 47.38094 | 7.79889 | 34869 ft | 402 kts | 160° |
| 2026-05-06 13:31 | 47.33036 | 7.83411 | 34856 ft | 402 kts | 160° |
| 2026-05-06 13:31 | 47.27980 | 7.86925 | 34846 ft | 402 kts | 160° |
| 2026-05-06 13:32 | 47.22916 | 7.90433 | 34845 ft | 402 kts | 160° |
| 2026-05-06 13:32 | 47.17850 | 7.93932 | 34859 ft | 402 kts | 160° |
| 2026-05-06 13:33 | 47.12783 | 7.97432 | 34845 ft | 403 kts | 160° |
| 2026-05-06 13:33 | 47.07707 | 8.00918 | 34856 ft | 403 kts | 160° |
| 2026-05-06 13:34 | 47.02620 | 8.04411 | 34864 ft | 404 kts | 160° |
| 2026-05-06 13:34 | 46.97535 | 8.07901 | 34872 ft | 404 kts | 160° |
| 2026-05-06 13:35 | 46.92440 | 8.11387 | 34878 ft | 404 kts | 160° |
| 2026-05-06 13:35 | 46.87342 | 8.14869 | 34871 ft | 405 kts | 160° |
| 2026-05-06 13:36 | 46.82236 | 8.18344 | 34849 ft | 405 kts | 161° |
| 2026-05-06 13:36 | 46.77174 | 8.21786 | 34860 ft | 404 kts | 161° |
| 2026-05-06 13:37 | 46.72042 | 8.25267 | 34880 ft | 404 kts | 161° |
| 2026-05-06 13:37 | 46.66941 | 8.28714 | 34884 ft | 404 kts | 161° |
| 2026-05-06 13:38 | 46.61877 | 8.32134 | 34895 ft | 404 kts | 161° |
| 2026-05-06 13:38 | 46.56790 | 8.35569 | 34900 ft | 403 kts | 161° |
| 2026-05-06 13:39 | 46.51709 | 8.38987 | 34900 ft | 402 kts | 161° |
| 2026-05-06 13:39 | 46.46643 | 8.42390 | 34889 ft | 401 kts | 161° |
| 2026-05-06 13:40 | 46.41577 | 8.45779 | 34887 ft | 401 kts | 161° |
| 2026-05-06 13:40 | 46.36507 | 8.49167 | 34878 ft | 401 kts | 162° |
| 2026-05-06 13:41 | 46.31449 | 8.52541 | 34894 ft | 401 kts | 162° |
| 2026-05-06 13:41 | 46.26392 | 8.55911 | 34910 ft | 400 kts | 162° |
| 2026-05-06 13:42 | 46.21342 | 8.59277 | 34884 ft | 399 kts | 162° |
| 2026-05-06 13:42 | 46.16294 | 8.62623 | 34900 ft | 399 kts | 162° |
| 2026-05-06 13:43 | 46.11245 | 8.65959 | 34897 ft | 398 kts | 162° |
| 2026-05-06 13:43 | 46.06264 | 8.69554 | 34887 ft | 402 kts | 159° |
| 2026-05-06 13:44 | 46.01362 | 8.73490 | 34894 ft | 404 kts | 158° |
| 2026-05-06 13:44 | 45.96458 | 8.77434 | 34891 ft | 403 kts | 159° |
| 2026-05-06 13:45 | 45.91548 | 8.81298 | 34903 ft | 402 kts | 159° |
| 2026-05-06 13:45 | 45.84176 | 8.87015 | 34896 ft | 401 kts | 159° |
| 2026-05-06 13:46 | 45.79296 | 8.90789 | 34869 ft | 401 kts | 160° |
| 2026-05-06 13:46 | 45.74353 | 8.94610 | 34858 ft | 401 kts | 159° |
| 2026-05-06 13:47 | 45.69438 | 8.98411 | 34847 ft | 401 kts | 159° |
| 2026-05-06 13:47 | 45.64663 | 9.02488 | 34826 ft | 412 kts | 149° |
| 2026-05-06 13:48 | 45.60592 | 9.08462 | 34824 ft | 423 kts | 141° |
| 2026-05-06 13:48 | 45.56653 | 9.14685 | 34819 ft | 421 kts | 141° |
| 2026-05-06 13:49 | 45.52712 | 9.20851 | 34818 ft | 421 kts | 141° |
| 2026-05-06 13:49 | 45.48763 | 9.27020 | 34827 ft | 421 kts | 141° |
| 2026-05-06 13:50 | 45.44811 | 9.33190 | 34825 ft | 421 kts | 141° |
| 2026-05-06 13:50 | 45.40855 | 9.39347 | 34998 ft | 422 kts | 142° |
| 2026-05-06 13:51 | 45.36897 | 9.45507 | 34968 ft | 422 kts | 142° |
| 2026-05-06 13:51 | 45.32933 | 9.51660 | 34944 ft | 422 kts | 142° |
| 2026-05-06 13:52 | 45.28958 | 9.57812 | 34904 ft | 423 kts | 142° |
| 2026-05-06 13:52 | 45.24984 | 9.63953 | 34862 ft | 422 kts | 142° |
| 2026-05-06 13:53 | 45.21005 | 9.70074 | 34795 ft | 422 kts | 142° |
| 2026-05-06 13:53 | 45.17019 | 9.76197 | 34799 ft | 423 kts | 142° |
| 2026-05-06 13:54 | 45.13066 | 9.82291 | 34798 ft | 423 kts | 142° |
| 2026-05-06 13:54 | 45.09054 | 9.88455 | 34812 ft | 423 kts | 142° |
| 2026-05-06 13:55 | 45.05065 | 9.94578 | 34812 ft | 423 kts | 142° |
| 2026-05-06 13:55 | 45.01066 | 10.00688 | 34814 ft | 424 kts | 142° |
| 2026-05-06 13:56 | 44.97073 | 10.06772 | 34835 ft | 426 kts | 142° |
| 2026-05-06 13:56 | 44.92984 | 10.12987 | 34874 ft | 436 kts | 142° |
| 2026-05-06 13:57 | 44.88855 | 10.19281 | 34860 ft | 437 kts | 142° |
| 2026-05-06 13:57 | 44.84635 | 10.25406 | 34858 ft | 427 kts | 150° |
| 2026-05-06 13:58 | 44.82194 | 10.27663 | 34863 ft | 414 kts | 162° |
| 2026-05-06 13:58 | 44.79564 | 10.29129 | 34862 ft | 401 kts | 173° |
| 2026-05-06 13:58 | 44.74139 | 10.30047 | 34837 ft | 391 kts | 183° |
| 2026-05-06 13:59 | 44.68704 | 10.30522 | 34840 ft | 392 kts | 183° |
| 2026-05-06 13:59 | 44.63258 | 10.31014 | 34857 ft | 392 kts | 183° |
| 2026-05-06 14:00 | 44.57814 | 10.31512 | 34911 ft | 392 kts | 183° |
| 2026-05-06 14:00 | 44.52370 | 10.32004 | 34887 ft | 392 kts | 183° |
| 2026-05-06 14:01 | 44.46887 | 10.32481 | 34922 ft | 397 kts | 182° |
| 2026-05-06 14:01 | 44.41367 | 10.32973 | 34925 ft | 398 kts | 182° |
| 2026-05-06 14:02 | 44.35846 | 10.33466 | 34931 ft | 398 kts | 182° |
| 2026-05-06 14:02 | 44.30319 | 10.33950 | 34934 ft | 398 kts | 182° |
| 2026-05-06 14:03 | 44.24843 | 10.34438 | 34434 ft | 395 kts | 182° |
| 2026-05-06 14:03 | 44.22044 | 10.34684 | 33285 ft | 398 kts | 183° |
| 2026-05-06 14:03 | 44.19331 | 10.35019 | 32326 ft | 399 kts | 175° |
| 2026-05-06 14:04 | 44.16688 | 10.36332 | 31507 ft | 410 kts | 158° |
| 2026-05-06 14:04 | 44.14428 | 10.38838 | 30703 ft | 424 kts | 140° |
| 2026-05-06 14:04 | 44.12534 | 10.41994 | 29774 ft | 425 kts | 137° |
| 2026-05-06 14:04 | 44.10683 | 10.45186 | 28853 ft | 421 kts | 136° |
| 2026-05-06 14:05 | 44.08864 | 10.48357 | 28010 ft | 417 kts | 136° |
| 2026-05-06 14:05 | 44.07065 | 10.51491 | 27228 ft | 412 kts | 136° |
| 2026-05-06 14:05 | 44.05319 | 10.54553 | 26909 ft | 397 kts | 135° |
| 2026-05-06 14:05 | 44.03665 | 10.57575 | 26385 ft | 389 kts | 134° |
| 2026-05-06 14:06 | 44.02070 | 10.60575 | 25791 ft | 384 kts | 134° |
| 2026-05-06 14:06 | 44.00503 | 10.63552 | 25156 ft | 380 kts | 133° |
| 2026-05-06 14:06 | 43.98951 | 10.66494 | 24490 ft | 376 kts | 133° |
| 2026-05-06 14:06 | 43.97412 | 10.69393 | 23834 ft | 372 kts | 134° |
| 2026-05-06 14:07 | 43.95877 | 10.72264 | 23094 ft | 369 kts | 134° |
| 2026-05-06 14:07 | 43.94334 | 10.75129 | 22077 ft | 372 kts | 134° |
| 2026-05-06 14:07 | 43.92795 | 10.77977 | 21546 ft | 362 kts | 134° |
| 2026-05-06 14:07 | 43.91305 | 10.80737 | 21183 ft | 352 kts | 134° |
| 2026-05-06 14:08 | 43.89862 | 10.83414 | 20821 ft | 341 kts | 134° |
| 2026-05-06 14:08 | 43.88401 | 10.85905 | 20467 ft | 324 kts | 143° |
| 2026-05-06 14:08 | 43.86753 | 10.87971 | 20120 ft | 317 kts | 146° |
| 2026-05-06 14:08 | 43.85120 | 10.90001 | 19770 ft | 314 kts | 146° |
| 2026-05-06 14:09 | 43.83502 | 10.92018 | 19431 ft | 312 kts | 145° |
| 2026-05-06 14:09 | 43.81892 | 10.94022 | 19095 ft | 312 kts | 145° |
| 2026-05-06 14:09 | 43.80281 | 10.96026 | 18762 ft | 311 kts | 145° |
| 2026-05-06 14:09 | 43.78672 | 10.98030 | 18434 ft | 311 kts | 145° |
| 2026-05-06 14:10 | 43.77064 | 11.00033 | 18093 ft | 311 kts | 144° |
| 2026-05-06 14:10 | 43.75456 | 11.02038 | 17712 ft | 310 kts | 144° |
| 2026-05-06 14:10 | 43.73860 | 11.04029 | 17342 ft | 309 kts | 144° |
| 2026-05-06 14:10 | 43.72263 | 11.06014 | 16979 ft | 308 kts | 144° |
| 2026-05-06 14:11 | 43.71206 | 11.07327 | 16740 ft | 308 kts | 144° |
| 2026-05-06 14:11 | 43.69614 | 11.09304 | 16383 ft | 308 kts | 144° |
| 2026-05-06 14:11 | 43.68025 | 11.11278 | 16009 ft | 307 kts | 144° |
| 2026-05-06 14:11 | 43.66405 | 11.13179 | 15653 ft | 302 kts | 153° |
| 2026-05-06 14:12 | 43.64499 | 11.14037 | 15302 ft | 283 kts | 184° |
| 2026-05-06 14:12 | 43.62670 | 11.13344 | 14963 ft | 272 kts | 215° |
| 2026-05-06 14:12 | 43.61250 | 11.11636 | 14630 ft | 271 kts | 227° |
| 2026-05-06 14:12 | 43.60020 | 11.09671 | 14295 ft | 271 kts | 231° |
| 2026-05-06 14:13 | 43.58840 | 11.07633 | 13980 ft | 271 kts | 231° |
| 2026-05-06 14:13 | 43.57661 | 11.05609 | 13640 ft | 271 kts | 230° |
| 2026-05-06 14:13 | 43.56456 | 11.03598 | 13247 ft | 272 kts | 229° |
| 2026-05-06 14:13 | 43.55228 | 11.01614 | 12853 ft | 272 kts | 229° |
| 2026-05-06 14:14 | 43.53979 | 10.99651 | 12468 ft | 272 kts | 228° |
| 2026-05-06 14:14 | 43.52720 | 10.97703 | 12077 ft | 272 kts | 227° |
| 2026-05-06 14:14 | 43.51455 | 10.95761 | 11702 ft | 272 kts | 227° |
| 2026-05-06 14:14 | 43.50192 | 10.93829 | 11318 ft | 271 kts | 227° |
| 2026-05-06 14:15 | 43.49023 | 10.91803 | 10938 ft | 271 kts | 242° |
| 2026-05-06 14:15 | 43.48692 | 10.89261 | 10573 ft | 278 kts | 274° |
| 2026-05-06 14:15 | 43.49464 | 10.86802 | 10206 ft | 288 kts | 303° |
| 2026-05-06 14:15 | 43.50885 | 10.84820 | 9850 ft | 293 kts | 315° |
| 2026-05-06 14:16 | 43.52511 | 10.83111 | 9462 ft | 295 kts | 321° |
| 2026-05-06 14:16 | 43.54432 | 10.82098 | 9059 ft | 304 kts | 352° |
| 2026-05-06 14:16 | 43.56509 | 10.82604 | 8669 ft | 309 kts | 25° |
| 2026-05-06 14:16 | 43.58245 | 10.84313 | 8293 ft | 307 kts | 44° |
| 2026-05-06 14:17 | 43.59665 | 10.86498 | 7906 ft | 305 kts | 52° |
| 2026-05-06 14:17 | 43.60520 | 10.88029 | 7657 ft | 304 kts | 54° |